sensor_id;sensor_type;location;lat;lon;timestamp;temperature;humidity
18229;DHT22;9239;50.932;3.142;2023-07-09T00:02:14;21.10;99.90
18229;DHT22;9239;50.932;3.142;2023-07-09T00:04:42;21.10;99.90
18229;DHT22;9239;50.932;3.142;2023-07-09T00:07:17;21.10;99.90
18229;DHT22;9239;50.932;3.142;2023-07-09T00:09:44;21.10;99.90
18229;DHT22;9239;50.932;3.142;2023-07-09T00:12:13;21.10;99.90
18229;DHT22;9239;50.932;3.142;2023-07-09T00:14:40;21.10;99.90
18229;DHT22;9239;50.932;3.142;2023-07-09T00:17:10;21.10;99.90
18229;DHT22;9239;50.932;3.142;2023-07-09T00:19:38;21.10;99.90
18229;DHT22;9239;50.932;3.142;2023-07-09T00:22:14;21.10;99.90
18229;DHT22;9239;50.932;3.142;2023-07-09T00:24:42;21.10;99.90
18229;DHT22;9239;50.932;3.142;2023-07-09T00:27:11;21.10;99.90
18229;DHT22;9239;50.932;3.142;2023-07-09T00:29:38;21.10;99.90
18229;DHT22;9239;50.932;3.142;2023-07-09T00:32:12;21.10;99.90
18229;DHT22;9239;50.932;3.142;2023-07-09T00:34:42;21.10;99.90
18229;DHT22;9239;50.932;3.142;2023-07-09T00:37:16;21.10;99.90
18229;DHT22;9239;50.932;3.142;2023-07-09T00:39:43;21.10;99.90
18229;DHT22;9239;50.932;3.142;2023-07-09T00:42:13;21.10;99.90
18229;DHT22;9239;50.932;3.142;2023-07-09T00:44:43;21.20;99.90
18229;DHT22;9239;50.932;3.142;2023-07-09T00:47:26;21.20;99.90
18229;DHT22;9239;50.932;3.142;2023-07-09T00:50:11;21.20;99.90
18229;DHT22;9239;50.932;3.142;2023-07-09T00:52:49;21.30;99.90
18229;DHT22;9239;50.932;3.142;2023-07-09T00:55:21;21.20;99.90
18229;DHT22;9239;50.932;3.142;2023-07-09T00:57:50;21.30;99.90
18229;DHT22;9239;50.932;3.142;2023-07-09T01:00:28;21.30;99.90
18229;DHT22;9239;50.932;3.142;2023-07-09T01:02:56;21.30;99.90
18229;DHT22;9239;50.932;3.142;2023-07-09T01:05:24;21.30;99.90
18229;DHT22;9239;50.932;3.142;2023-07-09T01:07:53;21.30;99.90
18229;DHT22;9239;50.932;3.142;2023-07-09T01:10:20;21.30;99.90
18229;DHT22;9239;50.932;3.142;2023-07-09T01:12:48;21.30;99.90
18229;DHT22;9239;50.932;3.142;2023-07-09T01:15:16;21.20;99.90
18229;DHT22;9239;50.932;3.142;2023-07-09T01:17:43;21.20;99.90
18229;DHT22;9239;50.932;3.142;2023-07-09T01:20:16;21.20;99.90
18229;DHT22;9239;50.932;3.142;2023-07-09T01:22:48;21.10;99.90
18229;DHT22;9239;50.932;3.142;2023-07-09T01:25:16;21.10;99.90
18229;DHT22;9239;50.932;3.142;2023-07-09T01:27:45;21.10;99.90
18229;DHT22;9239;50.932;3.142;2023-07-09T01:30:15;21.10;99.90
18229;DHT22;9239;50.932;3.142;2023-07-09T01:32:42;21.10;99.90
18229;DHT22;9239;50.932;3.142;2023-07-09T01:35:13;21.10;99.90
18229;DHT22;9239;50.932;3.142;2023-07-09T01:37:41;21.00;99.90
18229;DHT22;9239;50.932;3.142;2023-07-09T01:40:13;21.00;99.90
18229;DHT22;9239;50.932;3.142;2023-07-09T01:42:41;21.00;99.90
18229;DHT22;9239;50.932;3.142;2023-07-09T01:45:09;21.00;99.90
18229;DHT22;9239;50.932;3.142;2023-07-09T01:47:37;21.00;99.90
18229;DHT22;9239;50.932;3.142;2023-07-09T01:50:06;21.00;99.90
18229;DHT22;9239;50.932;3.142;2023-07-09T01:52:34;21.10;99.90
18229;DHT22;9239;50.932;3.142;2023-07-09T01:55:01;21.10;99.90
18229;DHT22;9239;50.932;3.142;2023-07-09T01:57:30;21.10;99.90
18229;DHT22;9239;50.932;3.142;2023-07-09T02:00:01;21.10;99.90
18229;DHT22;9239;50.932;3.142;2023-07-09T02:02:30;21.10;99.90
18229;DHT22;9239;50.932;3.142;2023-07-09T02:04:58;21.10;99.90
18229;DHT22;9239;50.932;3.142;2023-07-09T02:07:26;21.10;99.90
18229;DHT22;9239;50.932;3.142;2023-07-09T02:09:53;21.10;99.90
18229;DHT22;9239;50.932;3.142;2023-07-09T02:12:20;21.20;99.90
18229;DHT22;9239;50.932;3.142;2023-07-09T02:14:49;21.20;99.90
18229;DHT22;9239;50.932;3.142;2023-07-09T02:17:16;21.20;99.90
18229;DHT22;9239;50.932;3.142;2023-07-09T02:19:43;21.20;99.90
18229;DHT22;9239;50.932;3.142;2023-07-09T02:22:11;21.20;99.90
18229;DHT22;9239;50.932;3.142;2023-07-09T02:24:38;21.40;99.90
18229;DHT22;9239;50.932;3.142;2023-07-09T02:27:08;21.30;99.90
18229;DHT22;9239;50.932;3.142;2023-07-09T02:29:36;21.30;99.90
18229;DHT22;9239;50.932;3.142;2023-07-09T02:32:06;21.30;99.90
18229;DHT22;9239;50.932;3.142;2023-07-09T02:34:33;21.30;99.90
18229;DHT22;9239;50.932;3.142;2023-07-09T02:37:01;21.30;99.90
18229;DHT22;9239;50.932;3.142;2023-07-09T02:39:28;21.30;99.90
18229;DHT22;9239;50.932;3.142;2023-07-09T02:41:55;21.30;99.90
18229;DHT22;9239;50.932;3.142;2023-07-09T02:44:23;21.30;99.90
18229;DHT22;9239;50.932;3.142;2023-07-09T02:46:50;21.20;99.90
18229;DHT22;9239;50.932;3.142;2023-07-09T02:49:18;21.20;99.90
18229;DHT22;9239;50.932;3.142;2023-07-09T02:51:45;21.20;99.90
18229;DHT22;9239;50.932;3.142;2023-07-09T02:54:12;21.20;99.90
18229;DHT22;9239;50.932;3.142;2023-07-09T02:56:39;21.20;99.90
18229;DHT22;9239;50.932;3.142;2023-07-09T02:59:06;21.20;99.90
18229;DHT22;9239;50.932;3.142;2023-07-09T03:01:33;21.20;99.90
18229;DHT22;9239;50.932;3.142;2023-07-09T03:04:02;21.20;99.90
18229;DHT22;9239;50.932;3.142;2023-07-09T03:06:31;21.10;99.90
18229;DHT22;9239;50.932;3.142;2023-07-09T03:08:59;21.10;99.90
18229;DHT22;9239;50.932;3.142;2023-07-09T03:11:29;21.10;99.90
18229;DHT22;9239;50.932;3.142;2023-07-09T03:13:56;21.10;99.90
18229;DHT22;9239;50.932;3.142;2023-07-09T03:16:25;21.10;99.90
18229;DHT22;9239;50.932;3.142;2023-07-09T03:18:52;21.00;99.90
18229;DHT22;9239;50.932;3.142;2023-07-09T03:21:19;20.90;99.90
18229;DHT22;9239;50.932;3.142;2023-07-09T03:23:48;20.80;99.90
18229;DHT22;9239;50.932;3.142;2023-07-09T03:26:15;20.70;99.90
18229;DHT22;9239;50.932;3.142;2023-07-09T03:28:42;20.70;99.90
18229;DHT22;9239;50.932;3.142;2023-07-09T03:31:09;20.70;99.90
18229;DHT22;9239;50.932;3.142;2023-07-09T03:33:36;20.60;99.90
18229;DHT22;9239;50.932;3.142;2023-07-09T03:36:04;20.50;99.90
18229;DHT22;9239;50.932;3.142;2023-07-09T03:38:31;20.50;99.90
18229;DHT22;9239;50.932;3.142;2023-07-09T03:41:00;20.50;99.90
18229;DHT22;9239;50.932;3.142;2023-07-09T03:43:26;20.50;99.90
18229;DHT22;9239;50.932;3.142;2023-07-09T03:45:53;20.40;99.90
18229;DHT22;9239;50.932;3.142;2023-07-09T03:48:21;20.40;99.90
18229;DHT22;9239;50.932;3.142;2023-07-09T03:50:48;20.40;99.90
18229;DHT22;9239;50.932;3.142;2023-07-09T03:53:16;20.40;99.90
18229;DHT22;9239;50.932;3.142;2023-07-09T03:55:45;20.30;99.90
18229;DHT22;9239;50.932;3.142;2023-07-09T03:58:13;20.30;99.90
18229;DHT22;9239;50.932;3.142;2023-07-09T04:00:40;20.30;99.90
18229;DHT22;9239;50.932;3.142;2023-07-09T04:03:07;20.30;99.90
18229;DHT22;9239;50.932;3.142;2023-07-09T04:05:35;20.30;99.90
18229;DHT22;9239;50.932;3.142;2023-07-09T04:08:02;20.20;99.90
18229;DHT22;9239;50.932;3.142;2023-07-09T04:10:29;20.30;99.90
18229;DHT22;9239;50.932;3.142;2023-07-09T04:12:56;20.20;99.90
18229;DHT22;9239;50.932;3.142;2023-07-09T04:15:25;20.20;99.90
18229;DHT22;9239;50.932;3.142;2023-07-09T04:17:51;20.20;99.90
18229;DHT22;9239;50.932;3.142;2023-07-09T04:20:18;20.30;99.90
18229;DHT22;9239;50.932;3.142;2023-07-09T04:22:45;20.20;99.90
18229;DHT22;9239;50.932;3.142;2023-07-09T04:25:12;20.10;99.90
18229;DHT22;9239;50.932;3.142;2023-07-09T04:27:39;20.20;99.90
18229;DHT22;9239;50.932;3.142;2023-07-09T04:30:09;20.20;99.90
18229;DHT22;9239;50.932;3.142;2023-07-09T04:32:38;20.20;99.90
18229;DHT22;9239;50.932;3.142;2023-07-09T04:35:08;20.30;99.90
18229;DHT22;9239;50.932;3.142;2023-07-09T04:37:37;20.30;99.90
18229;DHT22;9239;50.932;3.142;2023-07-09T04:40:05;20.30;99.90
18229;DHT22;9239;50.932;3.142;2023-07-09T04:42:33;20.30;99.90
18229;DHT22;9239;50.932;3.142;2023-07-09T04:45:00;20.30;99.90
18229;DHT22;9239;50.932;3.142;2023-07-09T04:47:27;20.40;99.90
18229;DHT22;9239;50.932;3.142;2023-07-09T04:49:55;20.40;99.90
18229;DHT22;9239;50.932;3.142;2023-07-09T04:52:22;20.40;99.90
18229;DHT22;9239;50.932;3.142;2023-07-09T04:54:49;20.40;99.90
18229;DHT22;9239;50.932;3.142;2023-07-09T04:57:16;20.30;99.90
18229;DHT22;9239;50.932;3.142;2023-07-09T04:59:43;20.30;99.90
18229;DHT22;9239;50.932;3.142;2023-07-09T05:02:11;20.30;99.90
18229;DHT22;9239;50.932;3.142;2023-07-09T05:04:38;20.30;99.90
18229;DHT22;9239;50.932;3.142;2023-07-09T05:07:07;20.40;99.90
18229;DHT22;9239;50.932;3.142;2023-07-09T05:09:34;20.40;99.90
18229;DHT22;9239;50.932;3.142;2023-07-09T05:12:00;20.40;99.90
18229;DHT22;9239;50.932;3.142;2023-07-09T05:14:28;20.50;99.90
18229;DHT22;9239;50.932;3.142;2023-07-09T05:16:55;20.50;99.90
18229;DHT22;9239;50.932;3.142;2023-07-09T05:19:22;20.50;99.90
18229;DHT22;9239;50.932;3.142;2023-07-09T05:21:49;20.50;99.90
18229;DHT22;9239;50.932;3.142;2023-07-09T05:24:17;20.60;99.90
18229;DHT22;9239;50.932;3.142;2023-07-09T05:26:44;20.70;99.90
18229;DHT22;9239;50.932;3.142;2023-07-09T05:29:11;20.90;99.90
18229;DHT22;9239;50.932;3.142;2023-07-09T05:31:38;20.90;99.90
18229;DHT22;9239;50.932;3.142;2023-07-09T05:34:04;21.00;99.90
18229;DHT22;9239;50.932;3.142;2023-07-09T05:36:31;21.00;99.90
18229;DHT22;9239;50.932;3.142;2023-07-09T05:38:58;21.00;99.90
18229;DHT22;9239;50.932;3.142;2023-07-09T05:41:26;21.00;99.90
18229;DHT22;9239;50.932;3.142;2023-07-09T05:43:53;21.00;99.90
18229;DHT22;9239;50.932;3.142;2023-07-09T05:46:22;21.10;99.90
18229;DHT22;9239;50.932;3.142;2023-07-09T05:48:49;21.30;99.90
18229;DHT22;9239;50.932;3.142;2023-07-09T05:51:16;21.40;99.90
18229;DHT22;9239;50.932;3.142;2023-07-09T05:53:43;21.40;99.90
18229;DHT22;9239;50.932;3.142;2023-07-09T05:56:10;21.50;99.90
18229;DHT22;9239;50.932;3.142;2023-07-09T05:58:38;21.50;99.90
18229;DHT22;9239;50.932;3.142;2023-07-09T06:01:05;21.50;99.90
18229;DHT22;9239;50.932;3.142;2023-07-09T06:03:32;21.50;99.90
18229;DHT22;9239;50.932;3.142;2023-07-09T06:06:00;21.50;99.90
18229;DHT22;9239;50.932;3.142;2023-07-09T06:08:27;21.60;99.90
18229;DHT22;9239;50.932;3.142;2023-07-09T06:10:57;21.70;99.90
18229;DHT22;9239;50.932;3.142;2023-07-09T06:13:25;21.80;99.90
18229;DHT22;9239;50.932;3.142;2023-07-09T06:15:54;21.80;99.90
18229;DHT22;9239;50.932;3.142;2023-07-09T06:18:22;21.90;99.90
18229;DHT22;9239;50.932;3.142;2023-07-09T06:20:52;21.90;99.90
18229;DHT22;9239;50.932;3.142;2023-07-09T06:23:19;22.00;99.90
18229;DHT22;9239;50.932;3.142;2023-07-09T06:25:47;22.10;99.90
18229;DHT22;9239;50.932;3.142;2023-07-09T06:28:14;22.20;99.90
18229;DHT22;9239;50.932;3.142;2023-07-09T06:30:41;22.30;99.90
18229;DHT22;9239;50.932;3.142;2023-07-09T06:33:11;22.40;99.90
18229;DHT22;9239;50.932;3.142;2023-07-09T06:35:38;22.40;99.90
18229;DHT22;9239;50.932;3.142;2023-07-09T06:38:06;22.40;99.90
18229;DHT22;9239;50.932;3.142;2023-07-09T06:40:33;22.40;99.90
18229;DHT22;9239;50.932;3.142;2023-07-09T06:43:00;22.40;99.90
18229;DHT22;9239;50.932;3.142;2023-07-09T06:45:27;22.30;99.90
18229;DHT22;9239;50.932;3.142;2023-07-09T06:47:54;22.30;99.90
18229;DHT22;9239;50.932;3.142;2023-07-09T06:50:23;22.30;99.90
18229;DHT22;9239;50.932;3.142;2023-07-09T06:52:49;22.30;99.90
18229;DHT22;9239;50.932;3.142;2023-07-09T06:55:17;22.30;99.90
18229;DHT22;9239;50.932;3.142;2023-07-09T06:57:44;22.30;99.90
18229;DHT22;9239;50.932;3.142;2023-07-09T07:00:12;22.30;99.90
18229;DHT22;9239;50.932;3.142;2023-07-09T07:02:39;22.30;99.90
18229;DHT22;9239;50.932;3.142;2023-07-09T07:05:06;22.30;99.90
18229;DHT22;9239;50.932;3.142;2023-07-09T07:07:34;22.30;99.90
18229;DHT22;9239;50.932;3.142;2023-07-09T07:10:01;22.50;99.90
18229;DHT22;9239;50.932;3.142;2023-07-09T07:12:29;22.60;99.90
18229;DHT22;9239;50.932;3.142;2023-07-09T07:15:08;22.60;99.90
18229;DHT22;9239;50.932;3.142;2023-07-09T07:17:35;22.60;99.90
18229;DHT22;9239;50.932;3.142;2023-07-09T07:20:02;22.70;99.90
18229;DHT22;9239;50.932;3.142;2023-07-09T07:22:30;22.90;99.90
18229;DHT22;9239;50.932;3.142;2023-07-09T07:24:58;23.00;99.90
18229;DHT22;9239;50.932;3.142;2023-07-09T07:27:25;23.10;99.90
18229;DHT22;9239;50.932;3.142;2023-07-09T07:29:52;23.10;99.90
18229;DHT22;9239;50.932;3.142;2023-07-09T07:32:19;23.20;99.90
18229;DHT22;9239;50.932;3.142;2023-07-09T07:34:46;23.30;99.90
18229;DHT22;9239;50.932;3.142;2023-07-09T07:37:14;23.50;99.90
18229;DHT22;9239;50.932;3.142;2023-07-09T07:39:42;23.50;99.90
18229;DHT22;9239;50.932;3.142;2023-07-09T07:42:10;23.60;99.90
18229;DHT22;9239;50.932;3.142;2023-07-09T07:44:37;23.60;99.90
18229;DHT22;9239;50.932;3.142;2023-07-09T07:47:05;23.60;99.90
18229;DHT22;9239;50.932;3.142;2023-07-09T07:49:32;23.60;99.90
18229;DHT22;9239;50.932;3.142;2023-07-09T07:51:59;23.70;99.90
18229;DHT22;9239;50.932;3.142;2023-07-09T07:54:29;23.80;99.90
18229;DHT22;9239;50.932;3.142;2023-07-09T07:56:57;23.80;99.90
18229;DHT22;9239;50.932;3.142;2023-07-09T07:59:25;23.80;99.90
18229;DHT22;9239;50.932;3.142;2023-07-09T08:01:53;23.70;99.90
18229;DHT22;9239;50.932;3.142;2023-07-09T08:04:19;23.60;99.90
18229;DHT22;9239;50.932;3.142;2023-07-09T08:06:46;23.50;99.90
18229;DHT22;9239;50.932;3.142;2023-07-09T08:09:14;23.60;99.90
18229;DHT22;9239;50.932;3.142;2023-07-09T08:11:41;23.70;99.90
18229;DHT22;9239;50.932;3.142;2023-07-09T08:14:09;23.70;99.90
18229;DHT22;9239;50.932;3.142;2023-07-09T08:16:38;23.70;99.90
18229;DHT22;9239;50.932;3.142;2023-07-09T08:19:05;23.90;99.90
18229;DHT22;9239;50.932;3.142;2023-07-09T08:21:32;24.00;99.90
18229;DHT22;9239;50.932;3.142;2023-07-09T08:23:59;24.00;99.90
18229;DHT22;9239;50.932;3.142;2023-07-09T08:26:26;24.20;99.90
18229;DHT22;9239;50.932;3.142;2023-07-09T08:28:53;24.30;99.90
18229;DHT22;9239;50.932;3.142;2023-07-09T08:31:20;24.30;99.90
18229;DHT22;9239;50.932;3.142;2023-07-09T08:33:49;24.50;99.90
18229;DHT22;9239;50.932;3.142;2023-07-09T08:36:16;24.50;99.90
18229;DHT22;9239;50.932;3.142;2023-07-09T08:38:42;24.60;99.90
18229;DHT22;9239;50.932;3.142;2023-07-09T08:41:23;24.60;99.90
18229;DHT22;9239;50.932;3.142;2023-07-09T08:44:00;24.70;99.90
18229;DHT22;9239;50.932;3.142;2023-07-09T08:46:43;24.70;99.90
18229;DHT22;9239;50.932;3.142;2023-07-09T08:49:20;24.80;99.90
18229;DHT22;9239;50.932;3.142;2023-07-09T08:51:49;25.00;99.90
18229;DHT22;9239;50.932;3.142;2023-07-09T08:54:22;25.10;99.90
18229;DHT22;9239;50.932;3.142;2023-07-09T08:56:51;25.10;99.90
18229;DHT22;9239;50.932;3.142;2023-07-09T08:59:19;25.20;99.90
18229;DHT22;9239;50.932;3.142;2023-07-09T09:01:51;25.10;99.90
18229;DHT22;9239;50.932;3.142;2023-07-09T09:04:22;25.00;99.90
18229;DHT22;9239;50.932;3.142;2023-07-09T09:06:54;25.10;99.90
18229;DHT22;9239;50.932;3.142;2023-07-09T09:09:30;25.20;99.90
18229;DHT22;9239;50.932;3.142;2023-07-09T09:12:07;25.30;99.90
18229;DHT22;9239;50.932;3.142;2023-07-09T09:14:38;25.40;99.90
18229;DHT22;9239;50.932;3.142;2023-07-09T09:17:12;25.50;99.90
18229;DHT22;9239;50.932;3.142;2023-07-09T09:19:45;25.40;99.90
18229;DHT22;9239;50.932;3.142;2023-07-09T09:22:16;25.20;99.90
18229;DHT22;9239;50.932;3.142;2023-07-09T09:24:55;25.20;99.90
18229;DHT22;9239;50.932;3.142;2023-07-09T09:27:23;25.10;99.90
18229;DHT22;9239;50.932;3.142;2023-07-09T09:29:50;24.90;99.90
18229;DHT22;9239;50.932;3.142;2023-07-09T09:32:24;24.80;99.90
18229;DHT22;9239;50.932;3.142;2023-07-09T09:34:53;24.60;99.90
18229;DHT22;9239;50.932;3.142;2023-07-09T09:37:26;24.50;99.90
18229;DHT22;9239;50.932;3.142;2023-07-09T09:39:54;24.40;99.90
18229;DHT22;9239;50.932;3.142;2023-07-09T09:42:23;24.40;99.90
18229;DHT22;9239;50.932;3.142;2023-07-09T09:44:53;24.40;99.90
18229;DHT22;9239;50.932;3.142;2023-07-09T09:47:21;24.30;99.90
18229;DHT22;9239;50.932;3.142;2023-07-09T09:49:48;24.30;99.90
18229;DHT22;9239;50.932;3.142;2023-07-09T09:52:18;24.30;99.90
18229;DHT22;9239;50.932;3.142;2023-07-09T09:54:51;24.20;99.90
18229;DHT22;9239;50.932;3.142;2023-07-09T09:57:21;24.00;99.90
18229;DHT22;9239;50.932;3.142;2023-07-09T09:59:49;24.00;99.90
18229;DHT22;9239;50.932;3.142;2023-07-09T10:02:18;24.00;99.90
18229;DHT22;9239;50.932;3.142;2023-07-09T10:04:45;23.80;99.90
18229;DHT22;9239;50.932;3.142;2023-07-09T10:07:21;23.80;99.90
18229;DHT22;9239;50.932;3.142;2023-07-09T10:09:51;23.70;99.90
18229;DHT22;9239;50.932;3.142;2023-07-09T10:12:34;23.70;99.90
18229;DHT22;9239;50.932;3.142;2023-07-09T10:15:13;23.60;99.90
18229;DHT22;9239;50.932;3.142;2023-07-09T10:17:49;23.40;99.90
18229;DHT22;9239;50.932;3.142;2023-07-09T10:20:23;23.20;99.90
18229;DHT22;9239;50.932;3.142;2023-07-09T10:22:55;23.00;99.90
18229;DHT22;9239;50.932;3.142;2023-07-09T10:25:34;22.90;99.90
18229;DHT22;9239;50.932;3.142;2023-07-09T10:28:23;22.80;99.90
18229;DHT22;9239;50.932;3.142;2023-07-09T10:31:03;22.60;99.90
18229;DHT22;9239;50.932;3.142;2023-07-09T10:33:42;22.40;99.90
18229;DHT22;9239;50.932;3.142;2023-07-09T10:36:22;22.30;99.90
18229;DHT22;9239;50.932;3.142;2023-07-09T10:38:57;22.20;99.90
18229;DHT22;9239;50.932;3.142;2023-07-09T10:41:26;22.20;99.90
18229;DHT22;9239;50.932;3.142;2023-07-09T10:43:57;22.00;99.90
18229;DHT22;9239;50.932;3.142;2023-07-09T10:46:28;22.00;99.90
18229;DHT22;9239;50.932;3.142;2023-07-09T10:48:58;22.00;99.90
18229;DHT22;9239;50.932;3.142;2023-07-09T10:51:29;21.80;99.90
18229;DHT22;9239;50.932;3.142;2023-07-09T10:54:05;21.80;99.90
18229;DHT22;9239;50.932;3.142;2023-07-09T10:56:35;21.90;99.90
18229;DHT22;9239;50.932;3.142;2023-07-09T10:59:08;21.70;99.90
18229;DHT22;9239;50.932;3.142;2023-07-09T11:01:40;21.80;99.90
18229;DHT22;9239;50.932;3.142;2023-07-09T11:04:14;22.00;99.90
18229;DHT22;9239;50.932;3.142;2023-07-09T11:06:46;22.10;99.90
18229;DHT22;9239;50.932;3.142;2023-07-09T11:09:22;22.30;99.90
18229;DHT22;9239;50.932;3.142;2023-07-09T11:11:53;22.20;99.90
18229;DHT22;9239;50.932;3.142;2023-07-09T11:14:27;22.30;99.90
18229;DHT22;9239;50.932;3.142;2023-07-09T11:16:56;22.40;99.90
18229;DHT22;9239;50.932;3.142;2023-07-09T11:19:24;22.50;99.90
18229;DHT22;9239;50.932;3.142;2023-07-09T11:22:04;22.50;99.90
18229;DHT22;9239;50.932;3.142;2023-07-09T11:24:44;22.60;99.90
18229;DHT22;9239;50.932;3.142;2023-07-09T11:27:21;22.60;99.90
18229;DHT22;9239;50.932;3.142;2023-07-09T11:29:57;22.50;99.90
18229;DHT22;9239;50.932;3.142;2023-07-09T11:32:24;22.40;99.90
18229;DHT22;9239;50.932;3.142;2023-07-09T11:34:51;22.30;99.90
18229;DHT22;9239;50.932;3.142;2023-07-09T11:37:18;22.20;99.90
18229;DHT22;9239;50.932;3.142;2023-07-09T11:39:47;22.20;99.90
18229;DHT22;9239;50.932;3.142;2023-07-09T11:42:29;22.20;99.90
18229;DHT22;9239;50.932;3.142;2023-07-09T11:45:09;22.20;99.90
18229;DHT22;9239;50.932;3.142;2023-07-09T11:47:38;22.20;99.90
18229;DHT22;9239;50.932;3.142;2023-07-09T11:50:16;22.10;99.90
18229;DHT22;9239;50.932;3.142;2023-07-09T11:52:51;22.00;99.90
18229;DHT22;9239;50.932;3.142;2023-07-09T11:55:26;22.00;99.90
18229;DHT22;9239;50.932;3.142;2023-07-09T11:57:54;22.00;99.90
18229;DHT22;9239;50.932;3.142;2023-07-09T12:00:22;22.00;99.90
18229;DHT22;9239;50.932;3.142;2023-07-09T12:02:50;22.10;99.90
18229;DHT22;9239;50.932;3.142;2023-07-09T12:05:21;22.40;99.90
18229;DHT22;9239;50.932;3.142;2023-07-09T12:07:48;22.50;99.90
18229;DHT22;9239;50.932;3.142;2023-07-09T12:10:21;22.60;99.90
18229;DHT22;9239;50.932;3.142;2023-07-09T12:12:48;22.60;99.90
18229;DHT22;9239;50.932;3.142;2023-07-09T12:15:21;22.50;99.90
18229;DHT22;9239;50.932;3.142;2023-07-09T12:18:10;22.60;99.90
18229;DHT22;9239;50.932;3.142;2023-07-09T12:20:37;22.60;99.90
18229;DHT22;9239;50.932;3.142;2023-07-09T12:23:15;22.50;99.90
18229;DHT22;9239;50.932;3.142;2023-07-09T12:25:49;22.50;99.90
18229;DHT22;9239;50.932;3.142;2023-07-09T12:28:17;22.60;99.90
18229;DHT22;9239;50.932;3.142;2023-07-09T12:30:45;22.60;99.90
18229;DHT22;9239;50.932;3.142;2023-07-09T12:33:16;22.70;99.90
18229;DHT22;9239;50.932;3.142;2023-07-09T12:35:44;22.80;99.90
18229;DHT22;9239;50.932;3.142;2023-07-09T12:38:17;23.10;99.90
18229;DHT22;9239;50.932;3.142;2023-07-09T12:40:45;23.40;99.90
18229;DHT22;9239;50.932;3.142;2023-07-09T12:43:17;23.50;99.90
18229;DHT22;9239;50.932;3.142;2023-07-09T12:45:46;23.70;99.90
18229;DHT22;9239;50.932;3.142;2023-07-09T12:48:13;23.80;99.90
18229;DHT22;9239;50.932;3.142;2023-07-09T12:50:40;23.90;99.90
18229;DHT22;9239;50.932;3.142;2023-07-09T12:53:14;23.90;99.90
18229;DHT22;9239;50.932;3.142;2023-07-09T12:55:44;23.70;99.90
18229;DHT22;9239;50.932;3.142;2023-07-09T12:58:21;23.60;99.90
18229;DHT22;9239;50.932;3.142;2023-07-09T13:00:50;23.60;99.90
18229;DHT22;9239;50.932;3.142;2023-07-09T13:03:19;23.60;99.90
18229;DHT22;9239;50.932;3.142;2023-07-09T13:05:55;23.50;99.90
18229;DHT22;9239;50.932;3.142;2023-07-09T13:08:23;23.50;99.90
18229;DHT22;9239;50.932;3.142;2023-07-09T13:10:50;23.30;99.90
18229;DHT22;9239;50.932;3.142;2023-07-09T13:13:19;23.30;99.90
18229;DHT22;9239;50.932;3.142;2023-07-09T13:15:51;23.30;99.90
18229;DHT22;9239;50.932;3.142;2023-07-09T13:18:23;23.40;99.90
18229;DHT22;9239;50.932;3.142;2023-07-09T13:20:50;23.20;99.90
18229;DHT22;9239;50.932;3.142;2023-07-09T13:23:20;22.80;99.90
18229;DHT22;9239;50.932;3.142;2023-07-09T13:25:47;22.80;99.90
18229;DHT22;9239;50.932;3.142;2023-07-09T13:28:19;22.70;99.90
18229;DHT22;9239;50.932;3.142;2023-07-09T13:30:46;22.60;99.90
18229;DHT22;9239;50.932;3.142;2023-07-09T13:33:15;22.60;99.90
18229;DHT22;9239;50.932;3.142;2023-07-09T13:35:44;22.50;99.90
18229;DHT22;9239;50.932;3.142;2023-07-09T13:38:15;22.60;99.90
18229;DHT22;9239;50.932;3.142;2023-07-09T13:40:43;22.60;99.90
18229;DHT22;9239;50.932;3.142;2023-07-09T13:43:12;22.60;99.90
18229;DHT22;9239;50.932;3.142;2023-07-09T13:45:39;22.60;99.90
18229;DHT22;9239;50.932;3.142;2023-07-09T13:48:13;22.60;99.90
18229;DHT22;9239;50.932;3.142;2023-07-09T13:50:43;22.60;99.90
18229;DHT22;9239;50.932;3.142;2023-07-09T13:53:15;22.60;99.90
18229;DHT22;9239;50.932;3.142;2023-07-09T13:55:43;22.50;99.90
18229;DHT22;9239;50.932;3.142;2023-07-09T13:58:11;22.40;99.90
18229;DHT22;9239;50.932;3.142;2023-07-09T14:00:39;22.50;99.90
18229;DHT22;9239;50.932;3.142;2023-07-09T14:03:12;22.70;99.90
18229;DHT22;9239;50.932;3.142;2023-07-09T14:05:40;22.80;99.90
18229;DHT22;9239;50.932;3.142;2023-07-09T14:08:09;22.80;99.90
18229;DHT22;9239;50.932;3.142;2023-07-09T14:10:36;22.90;99.90
18229;DHT22;9239;50.932;3.142;2023-07-09T14:13:03;22.80;99.90
18229;DHT22;9239;50.932;3.142;2023-07-09T14:15:31;22.70;99.90
18229;DHT22;9239;50.932;3.142;2023-07-09T14:17:57;22.70;99.90
18229;DHT22;9239;50.932;3.142;2023-07-09T14:20:24;22.70;99.90
18229;DHT22;9239;50.932;3.142;2023-07-09T14:22:51;22.70;99.90
18229;DHT22;9239;50.932;3.142;2023-07-09T14:25:24;22.70;99.90
18229;DHT22;9239;50.932;3.142;2023-07-09T14:27:53;22.60;99.90
18229;DHT22;9239;50.932;3.142;2023-07-09T14:30:23;22.50;99.90
18229;DHT22;9239;50.932;3.142;2023-07-09T14:32:51;22.50;99.90
18229;DHT22;9239;50.932;3.142;2023-07-09T14:35:19;22.50;99.90
18229;DHT22;9239;50.932;3.142;2023-07-09T14:37:49;22.60;99.90
18229;DHT22;9239;50.932;3.142;2023-07-09T14:40:18;22.60;99.90
18229;DHT22;9239;50.932;3.142;2023-07-09T14:42:48;22.60;99.90
18229;DHT22;9239;50.932;3.142;2023-07-09T14:45:18;22.60;99.90
18229;DHT22;9239;50.932;3.142;2023-07-09T14:47:46;22.60;99.90
18229;DHT22;9239;50.932;3.142;2023-07-09T14:50:13;22.60;99.90
18229;DHT22;9239;50.932;3.142;2023-07-09T14:52:42;22.70;99.90
18229;DHT22;9239;50.932;3.142;2023-07-09T14:55:14;22.80;99.90
18229;DHT22;9239;50.932;3.142;2023-07-09T14:57:41;22.80;99.90
18229;DHT22;9239;50.932;3.142;2023-07-09T15:00:14;23.00;99.90
18229;DHT22;9239;50.932;3.142;2023-07-09T15:02:43;23.10;99.90
18229;DHT22;9239;50.932;3.142;2023-07-09T15:05:15;23.10;99.90
18229;DHT22;9239;50.932;3.142;2023-07-09T15:07:43;23.30;99.90
18229;DHT22;9239;50.932;3.142;2023-07-09T15:10:13;23.40;99.90
18229;DHT22;9239;50.932;3.142;2023-07-09T15:12:42;23.50;99.90
18229;DHT22;9239;50.932;3.142;2023-07-09T15:15:17;23.40;99.90
18229;DHT22;9239;50.932;3.142;2023-07-09T15:17:45;23.30;99.90
18229;DHT22;9239;50.932;3.142;2023-07-09T15:20:13;23.30;99.90
18229;DHT22;9239;50.932;3.142;2023-07-09T15:22:41;23.30;99.90
18229;DHT22;9239;50.932;3.142;2023-07-09T15:25:13;23.20;99.90
18229;DHT22;9239;50.932;3.142;2023-07-09T15:27:40;23.20;99.90
18229;DHT22;9239;50.932;3.142;2023-07-09T15:30:14;23.30;99.90
18229;DHT22;9239;50.932;3.142;2023-07-09T15:32:42;23.20;99.90
18229;DHT22;9239;50.932;3.142;2023-07-09T15:35:09;23.20;99.90
18229;DHT22;9239;50.932;3.142;2023-07-09T15:37:36;23.30;99.90
18229;DHT22;9239;50.932;3.142;2023-07-09T15:40:05;23.40;99.90
18229;DHT22;9239;50.932;3.142;2023-07-09T15:42:39;23.70;99.90
18229;DHT22;9239;50.932;3.142;2023-07-09T15:45:07;23.90;99.90
18229;DHT22;9239;50.932;3.142;2023-07-09T15:47:36;24.00;99.90
18229;DHT22;9239;50.932;3.142;2023-07-09T15:50:12;24.10;99.90
18229;DHT22;9239;50.932;3.142;2023-07-09T15:52:40;24.00;99.90
18229;DHT22;9239;50.932;3.142;2023-07-09T15:55:15;24.10;99.90
18229;DHT22;9239;50.932;3.142;2023-07-09T15:57:42;24.10;99.90
18229;DHT22;9239;50.932;3.142;2023-07-09T16:00:16;23.90;99.90